Sonoma, CA

8:08 PM PST on December 09, 2016 (GMT -0800)
Just off the Plaza | | Change Station

Elev 80 ft 38.29 °N, 122.46 °W | Updated 8 minutes ago

Overcast
Overcast
57.5 °F
Feels Like 57.5 °F
N
2.0
Wind Variable Wind from NNE
Gusts 3.0 mph

Today
High -- | Low -- °F
--% Chance of Precip.
Yesterday
High -- | Low -- °F
Precip. -- in
Pressure 30.15 in
Visibility 10.0 miles
Clouds Overcast 2500 ft
Dew Point 56 °F
Humidity 95%
Rainfall 0.11 in
Snow Depth Not available.
7:15 AM 4:49 PM
Waxing Gibbous, 80% visible
METAR KO69 100355Z AUTO 11004KT 10SM OVC025 14/13 A3015 RMK AO1
Pressure 30.15 in
Visibility 10.0 miles
Clouds Overcast 2500 ft
Dew Point 56 °F
Humidity 95%
Rainfall 0.11 in
Snow Depth Not available.
7:15 AM 4:49 PM
Waxing Gibbous, 80% visible
METAR KO69 100355Z AUTO 11004KT 10SM OVC025 14/13 A3015 RMK AO1

10-Day Weather Forecast

Almanac

Astronomy

Dec. 09, 2016 Rise Set
Actual Time
Civil Twilight
Nautical Twilight
Astronomical Twilight
Moon
Length of Visible Light
Length of Day
Tomorrow will be .
, % of the Moon is Illuminated

Today's Extremes

State Highs State Lows

Community

WunderPhotos

Upload Photos

1,956,529 photos uploaded!

WunderBlog® & News

Nearby

Air Quality

  Air Quality AQ Index Pollutant
Not available.

Snow Depth

Station Depth Elevation

Earthquake Activity

City Distance Mag. Time & Date
Minimum magnitude displayed is 2.5.

Coastal Water Temperatures

Place Temperature

Stations

Nearby Weather Stations

Station Location Temp. Windchill Dew Point Humidity Wind Precip. Elev Updated Type
                   

Watches & Warnings

There are currently no watches in effect.